createdAt,value
2023-05-21T00:00:53.880Z,67.78
2023-05-21T00:02:14.579Z,68.18
2023-05-21T00:03:17.731Z,68.30
2023-05-21T00:04:20.555Z,68.48
2023-05-21T00:05:24.108Z,68.59
2023-05-21T00:06:27.743Z,68.69
2023-05-21T00:07:31.623Z,68.76
2023-05-21T00:08:34.413Z,68.82
2023-05-21T00:09:40.401Z,68.85
2023-05-21T00:10:43.254Z,68.17
2023-05-21T00:11:45.971Z,68.32
2023-05-21T00:12:48.738Z,68.74
2023-05-21T00:13:51.489Z,68.89
2023-05-21T00:14:54.233Z,68.99
2023-05-21T00:15:56.939Z,69.09
2023-05-21T00:16:59.780Z,69.16
2023-05-21T00:18:02.745Z,69.21
2023-05-21T00:19:06.212Z,69.23
2023-05-21T00:20:09.361Z,69.33
2023-05-21T00:21:12.341Z,69.38
2023-05-21T00:22:16.033Z,69.46
2023-05-21T00:23:19.477Z,69.46
2023-05-21T00:24:22.231Z,69.50
2023-05-21T00:25:24.938Z,69.54
2023-05-21T00:26:27.715Z,69.59
2023-05-21T00:27:32.082Z,69.64
2023-05-21T00:28:34.955Z,69.67
2023-05-21T00:29:37.951Z,69.64
2023-05-21T00:30:41.056Z,69.59
2023-05-21T00:31:43.798Z,69.58
2023-05-21T00:32:46.727Z,69.63
2023-05-21T00:33:49.785Z,69.70
2023-05-21T00:34:52.529Z,69.73
2023-05-21T00:35:56.876Z,69.76
2023-05-21T00:36:59.604Z,69.82
2023-05-21T00:38:02.355Z,69.84
2023-05-21T00:39:05.792Z,69.83
2023-05-21T00:40:09.259Z,69.82
2023-05-21T00:41:12.031Z,69.82
2023-05-21T00:42:18.101Z,69.83
2023-05-21T00:43:26.087Z,69.88
2023-05-21T00:44:34.122Z,69.93
2023-05-21T00:45:37.552Z,69.98
2023-05-21T00:46:40.979Z,70.03
2023-05-21T00:47:44.255Z,70.10
2023-05-21T00:48:47.737Z,70.18
2023-05-21T00:49:52.964Z,70.24
2023-05-21T00:50:55.768Z,70.32
2023-05-21T00:52:01.457Z,70.40
2023-05-21T00:53:04.868Z,70.51
2023-05-21T00:54:08.402Z,70.58
2023-05-21T00:55:11.228Z,70.63
2023-05-21T00:56:14.112Z,70.67
2023-05-21T00:57:20.659Z,70.69
2023-05-21T00:58:23.687Z,70.73
2023-05-21T00:59:26.582Z,70.77
2023-05-21T01:00:29.606Z,70.80
2023-05-21T01:01:33.902Z,70.86
2023-05-21T01:02:37.490Z,70.93
2023-05-21T01:03:41.066Z,70.98
2023-05-21T01:04:46.818Z,71.03
2023-05-21T01:05:51.114Z,71.10
2023-05-21T01:06:56.212Z,71.16
2023-05-21T01:07:59.274Z,71.22
2023-05-21T01:09:04.426Z,71.23
2023-05-21T01:10:09.649Z,71.20
2023-05-21T01:11:12.851Z,71.15
2023-05-21T01:12:15.844Z,71.09
2023-05-21T01:13:20.664Z,71.08
2023-05-21T01:14:24.288Z,71.07
2023-05-21T01:15:27.575Z,71.15
2023-05-21T01:16:32.359Z,71.16
2023-05-21T01:17:35.701Z,71.21
2023-05-21T01:18:38.708Z,71.22
2023-05-21T01:19:44.497Z,71.24
2023-05-21T01:20:48.300Z,71.21
2023-05-21T01:21:56.831Z,71.27
2023-05-21T01:23:00.766Z,71.39
2023-05-21T01:24:05.641Z,71.49
2023-05-21T01:25:08.771Z,71.58
2023-05-21T01:26:12.996Z,71.67
2023-05-21T01:27:15.758Z,71.76
2023-05-21T01:28:18.533Z,71.87
2023-05-21T01:29:21.816Z,71.89
2023-05-21T01:32:01.489Z,72.12
2023-05-21T01:33:07.814Z,72.15
2023-05-21T01:34:12.309Z,72.19
2023-05-21T01:35:20.850Z,72.23
2023-05-21T01:36:26.274Z,72.23
2023-05-21T01:37:29.142Z,72.27
2023-05-21T01:38:31.881Z,72.27
2023-05-21T01:39:38.604Z,72.23
2023-05-21T01:40:53.304Z,72.20
2023-05-21T01:41:56.980Z,72.19
2023-05-21T01:42:59.775Z,72.18
2023-05-21T01:44:03.760Z,72.19
2023-05-21T01:45:08.006Z,72.19
2023-05-21T01:46:13.887Z,72.22
2023-05-21T01:47:17.906Z,72.25
2023-05-21T01:48:21.010Z,72.29
2023-05-21T01:49:24.026Z,72.33
2023-05-21T01:50:27.068Z,72.36
2023-05-21T01:51:30.200Z,72.38
2023-05-21T01:52:32.961Z,72.38
2023-05-21T01:53:35.838Z,72.39
2023-05-21T01:54:38.709Z,72.44
2023-05-21T01:55:42.032Z,72.51
2023-05-21T01:56:44.960Z,72.56
2023-05-21T01:57:47.781Z,72.65
2023-05-21T01:58:50.567Z,72.75
2023-05-21T01:59:53.494Z,72.84
2023-05-21T02:00:57.026Z,72.90
2023-05-21T02:01:59.896Z,72.93
2023-05-21T02:03:03.213Z,72.99
2023-05-21T02:04:06.176Z,73.03
2023-05-21T02:05:09.283Z,73.06
2023-05-21T02:06:12.042Z,73.11
2023-05-21T02:07:15.107Z,73.15
2023-05-21T02:08:19.704Z,73.18
2023-05-21T02:09:22.676Z,73.13
2023-05-21T02:10:25.497Z,73.07
2023-05-21T02:11:28.529Z,73.06
2023-05-21T02:12:31.304Z,73.07
2023-05-21T02:13:34.077Z,73.02
2023-05-21T02:14:39.159Z,73.03
2023-05-21T02:15:42.311Z,73.16
2023-05-21T02:16:45.175Z,73.31
2023-05-21T02:17:48.121Z,73.40
2023-05-21T02:18:57.424Z,73.45
2023-05-21T02:20:18.888Z,73.56
2023-05-21T02:21:21.736Z,73.66
2023-05-21T02:22:24.463Z,73.66
2023-05-21T02:23:27.245Z,73.67
2023-05-21T02:24:30.218Z,73.71
2023-05-21T02:25:33.122Z,73.69
2023-05-21T02:26:36.165Z,73.61
2023-05-21T02:27:39.467Z,73.55
2023-05-21T02:28:42.181Z,73.55
2023-05-21T02:29:44.987Z,73.59
2023-05-21T02:30:47.937Z,73.60
2023-05-21T02:31:51.371Z,73.64
2023-05-21T02:32:55.302Z,73.68
2023-05-21T02:33:58.174Z,73.71
2023-05-21T02:35:01.921Z,73.73
2023-05-21T02:36:05.064Z,73.75
2023-05-21T02:37:09.700Z,73.76
2023-05-21T02:38:13.692Z,73.77
2023-05-21T02:39:17.381Z,73.75
2023-05-21T02:40:20.138Z,73.73
2023-05-21T02:41:23.360Z,73.68
2023-05-21T02:42:26.290Z,73.68
2023-05-21T02:43:29.371Z,73.69
2023-05-21T02:44:32.204Z,73.71
2023-05-21T02:45:35.237Z,73.73
2023-05-21T02:46:38.276Z,73.73
2023-05-21T02:47:41.485Z,73.74
2023-05-21T02:48:44.447Z,73.77
2023-05-21T02:49:47.188Z,73.80
2023-05-21T02:50:50.459Z,73.80
2023-05-21T02:51:53.240Z,73.82
2023-05-21T02:52:56.097Z,73.84
2023-05-21T02:53:58.846Z,73.84
2023-05-21T02:55:02.598Z,73.87
2023-05-21T02:56:05.694Z,73.92
2023-05-21T02:57:08.604Z,73.96
2023-05-21T02:58:13.505Z,73.99
2023-05-21T02:59:16.467Z,74.00
2023-05-21T03:00:19.374Z,74.01
2023-05-21T03:01:22.261Z,73.99
2023-05-21T03:02:25.071Z,73.99
2023-05-21T03:03:28.229Z,74.01
2023-05-21T03:04:31.156Z,74.05
2023-05-21T03:05:34.001Z,74.08
2023-05-21T03:06:36.993Z,74.12
2023-05-21T03:07:39.791Z,74.12
2023-05-21T03:08:42.601Z,74.17
2023-05-21T03:09:45.662Z,74.24
2023-05-21T03:10:48.936Z,74.29
2023-05-21T03:11:51.896Z,74.33
2023-05-21T03:12:54.975Z,74.33
2023-05-21T03:13:58.356Z,74.33
2023-05-21T03:15:01.404Z,74.32
2023-05-21T03:16:04.268Z,74.33
2023-05-21T03:17:07.770Z,74.32
2023-05-21T03:18:11.808Z,74.32
2023-05-21T03:19:15.627Z,74.29
2023-05-21T03:20:19.040Z,74.30
2023-05-21T03:21:24.834Z,74.28
2023-05-21T03:22:27.844Z,74.29
2023-05-21T03:23:30.675Z,74.27
2023-05-21T03:24:33.615Z,74.25
2023-05-21T03:25:37.732Z,74.25
2023-05-21T03:26:40.869Z,74.25
2023-05-21T03:27:43.972Z,74.27
2023-05-21T03:28:59.265Z,74.27
2023-05-21T03:30:03.892Z,74.26
2023-05-21T03:31:08.426Z,74.27
2023-05-21T03:32:11.444Z,74.27
2023-05-21T03:33:14.269Z,74.27
2023-05-21T03:34:20.112Z,74.25
2023-05-21T03:35:23.797Z,74.20
2023-05-21T03:36:26.632Z,74.13
2023-05-21T03:37:29.337Z,74.06
2023-05-21T03:38:32.306Z,74.03
2023-05-21T03:39:35.520Z,73.99
2023-05-21T03:40:38.731Z,73.99
2023-05-21T03:41:41.780Z,73.93
2023-05-21T03:42:47.730Z,73.91
2023-05-21T03:43:50.787Z,73.93
2023-05-21T03:44:54.246Z,73.93
2023-05-21T03:46:12.156Z,73.93
2023-05-21T03:47:14.961Z,73.94
2023-05-21T03:48:18.215Z,73.94
2023-05-21T03:49:21.255Z,73.95
2023-05-21T03:50:25.391Z,73.92
2023-05-21T03:51:30.385Z,73.89
2023-05-21T03:52:33.584Z,73.89
2023-05-21T03:53:36.955Z,73.88
2023-05-21T03:54:39.918Z,73.86
2023-05-21T03:55:43.825Z,73.87
2023-05-21T03:56:46.527Z,73.92
2023-05-21T03:57:49.332Z,73.96
2023-05-21T03:58:52.823Z,73.94
2023-05-21T03:59:55.978Z,73.96
2023-05-21T04:00:59.040Z,73.94
2023-05-21T04:02:01.878Z,73.90
2023-05-21T04:03:04.715Z,73.86
2023-05-21T04:04:07.791Z,73.81
2023-05-21T04:05:10.761Z,73.76
2023-05-21T04:06:13.692Z,73.69
2023-05-21T04:07:19.223Z,73.65
2023-05-21T04:08:22.060Z,73.61
2023-05-21T04:09:24.844Z,73.61
2023-05-21T04:10:28.150Z,73.62
2023-05-21T04:11:31.543Z,73.58
2023-05-21T04:12:34.389Z,73.53
2023-05-21T04:13:37.209Z,73.45
2023-05-21T04:14:40.207Z,73.38
2023-05-21T04:15:44.585Z,73.31
2023-05-21T04:16:49.396Z,73.22
2023-05-21T04:17:52.442Z,73.09
2023-05-21T04:18:55.549Z,72.97
2023-05-21T04:19:58.808Z,72.90
2023-05-21T04:21:02.469Z,72.79
2023-05-21T04:22:05.606Z,72.72
2023-05-21T04:23:08.664Z,72.67
2023-05-21T04:24:11.757Z,72.62
2023-05-21T04:25:34.128Z,72.53
2023-05-21T04:26:38.173Z,72.43
2023-05-21T04:27:42.899Z,72.39
2023-05-21T04:28:46.044Z,72.31
2023-05-21T04:29:50.774Z,72.19
2023-05-21T04:30:53.746Z,72.11
2023-05-21T04:31:56.625Z,72.05
2023-05-21T04:33:00.376Z,72.02
2023-05-21T04:34:03.522Z,71.96
2023-05-21T04:35:06.613Z,71.90
2023-05-21T04:36:10.593Z,71.79
2023-05-21T04:37:13.817Z,71.73
2023-05-21T04:38:19.943Z,71.71
2023-05-21T04:39:22.895Z,71.65
2023-05-21T04:40:26.875Z,71.57
2023-05-21T04:41:29.760Z,71.50
2023-05-21T04:42:33.101Z,71.36
2023-05-21T04:43:36.793Z,71.18
2023-05-21T04:44:44.517Z,70.96
2023-05-21T04:45:47.677Z,70.86
2023-05-21T04:46:50.729Z,70.76
2023-05-21T04:47:53.780Z,70.58
2023-05-21T04:48:58.100Z,70.44
2023-05-21T04:50:01.940Z,70.31
2023-05-21T04:51:06.444Z,70.14
2023-05-21T04:52:09.157Z,70.01
2023-05-21T04:53:12.280Z,69.93
2023-05-21T04:54:15.596Z,69.72
2023-05-21T04:55:19.079Z,69.54
2023-05-21T04:56:22.382Z,69.45
2023-05-21T04:57:25.143Z,69.38
2023-05-21T04:58:28.640Z,69.25
2023-05-21T04:59:32.130Z,69.14
2023-05-21T05:00:37.781Z,69.03
2023-05-21T05:01:41.229Z,68.98
2023-05-21T05:02:44.203Z,68.81
2023-05-21T05:03:47.329Z,68.49
2023-05-21T05:04:50.261Z,68.15
2023-05-21T05:05:53.836Z,67.92
2023-05-21T05:06:56.584Z,67.74
2023-05-21T05:07:59.435Z,67.73
2023-05-21T05:09:02.267Z,67.64
2023-05-21T05:10:05.300Z,67.52
2023-05-21T05:11:08.689Z,67.31
2023-05-21T05:12:11.506Z,67.02
2023-05-21T05:13:14.357Z,66.77
2023-05-21T05:14:17.171Z,66.60
2023-05-21T05:15:20.232Z,66.58
2023-05-21T05:16:25.778Z,66.46
2023-05-21T05:17:32.059Z,66.18
2023-05-21T05:18:35.205Z,65.99
2023-05-21T05:19:38.212Z,65.84
2023-05-21T05:20:41.249Z,65.57
2023-05-21T05:21:44.124Z,65.30
2023-05-21T05:22:47.472Z,65.09
2023-05-21T05:23:50.321Z,64.94
2023-05-21T05:24:53.178Z,64.51
2023-05-21T05:25:56.156Z,64.36
2023-05-21T05:26:59.039Z,64.42
2023-05-21T05:28:01.863Z,64.42
2023-05-21T05:29:04.657Z,64.13
2023-05-21T05:30:07.776Z,63.37
2023-05-21T05:31:11.475Z,62.81
2023-05-21T05:32:14.330Z,62.51
2023-05-21T05:33:17.448Z,62.91
2023-05-21T05:34:20.205Z,62.79
2023-05-21T05:35:25.392Z,61.90
2023-05-21T05:36:28.513Z,62.26
2023-05-21T05:37:32.818Z,62.54
2023-05-21T05:38:36.102Z,61.48
2023-05-21T05:39:39.062Z,60.93
2023-05-21T05:40:41.880Z,60.58
2023-05-21T05:41:44.754Z,60.48
2023-05-21T05:42:49.434Z,60.60
2023-05-21T05:43:52.587Z,60.81
2023-05-21T05:44:57.056Z,59.87
2023-05-21T05:46:00.492Z,59.15
2023-05-21T05:47:03.406Z,58.32
2023-05-21T05:48:06.387Z,57.65
2023-05-21T05:49:09.214Z,58.51
2023-05-21T05:50:12.117Z,57.86
2023-05-21T05:51:15.484Z,57.94
2023-05-21T05:52:18.362Z,59.55
2023-05-21T05:53:21.105Z,60.95
2023-05-21T05:54:23.916Z,59.55
2023-05-21T05:55:26.930Z,58.96
2023-05-21T05:56:29.847Z,58.54
2023-05-21T05:57:32.636Z,58.36
2023-05-21T05:58:37.758Z,58.21
2023-05-21T05:59:46.976Z,58.14
2023-05-21T06:00:51.160Z,59.62
2023-05-21T06:01:53.995Z,61.70
2023-05-21T06:02:57.056Z,62.22
2023-05-21T06:04:00.001Z,63.12
2023-05-21T06:05:03.349Z,62.69
2023-05-21T06:06:06.378Z,61.98
2023-05-21T06:07:09.576Z,61.70
2023-05-21T06:08:12.426Z,62.12
2023-05-21T06:09:15.224Z,61.22
2023-05-21T06:10:18.774Z,60.72
2023-05-21T06:11:22.788Z,60.55
2023-05-21T06:12:25.748Z,59.85
2023-05-21T06:13:28.532Z,59.66
2023-05-21T06:14:31.392Z,59.92
2023-05-21T06:15:34.384Z,59.35
2023-05-21T06:16:37.507Z,57.84
2023-05-21T06:17:41.007Z,56.72
2023-05-21T06:18:43.971Z,56.09
2023-05-21T06:19:47.025Z,56.37
2023-05-21T06:20:50.359Z,56.22
2023-05-21T06:21:53.528Z,57.36
2023-05-21T06:22:56.400Z,56.65
2023-05-21T06:23:59.513Z,55.96
2023-05-21T06:25:04.928Z,55.42
2023-05-21T06:26:07.860Z,55.06
2023-05-21T06:27:11.069Z,57.65
2023-05-21T06:28:14.507Z,58.19
2023-05-21T06:29:17.649Z,55.51
2023-05-21T06:30:22.118Z,54.33
2023-05-21T06:31:25.004Z,53.93
2023-05-21T06:32:28.155Z,53.85
2023-05-21T06:33:31.981Z,53.85
2023-05-21T06:34:35.164Z,53.95
2023-05-21T06:35:39.992Z,54.05
2023-05-21T06:36:43.523Z,56.13
2023-05-21T06:37:46.737Z,60.23
2023-05-21T06:38:49.566Z,59.51
2023-05-21T06:39:52.347Z,58.66
2023-05-21T06:40:55.223Z,59.62
2023-05-21T06:42:12.442Z,57.79
2023-05-21T06:43:35.524Z,60.17
2023-05-21T06:45:04.924Z,59.39
2023-05-21T06:46:13.527Z,58.75
2023-05-21T06:47:16.621Z,58.70
2023-05-21T06:48:19.699Z,58.40
2023-05-21T06:49:23.649Z,58.41
2023-05-21T06:50:27.963Z,58.71
2023-05-21T06:51:31.236Z,58.16
2023-05-21T06:52:34.214Z,58.24
2023-05-21T06:53:37.506Z,59.07
2023-05-21T06:54:40.720Z,58.36
2023-05-21T06:55:46.515Z,59.86
2023-05-21T06:56:57.083Z,60.46
2023-05-21T06:58:00.317Z,60.51
2023-05-21T06:59:03.160Z,60.68
2023-05-21T07:00:06.411Z,61.16
2023-05-21T07:01:10.144Z,61.34
2023-05-21T07:02:13.072Z,60.74
2023-05-21T07:03:16.301Z,60.83
2023-05-21T07:04:19.372Z,61.75
2023-05-21T07:05:22.177Z,62.13
2023-05-21T07:06:24.973Z,62.15
2023-05-21T07:07:28.478Z,62.64
2023-05-21T07:08:31.393Z,62.72
2023-05-21T07:09:34.734Z,62.66
2023-05-21T07:10:37.672Z,62.70
2023-05-21T07:11:41.785Z,62.43
2023-05-21T07:12:44.946Z,61.81
2023-05-21T07:13:48.140Z,61.24
2023-05-21T07:14:51.658Z,60.19
2023-05-21T07:15:54.427Z,61.22
2023-05-21T07:16:57.348Z,60.18
2023-05-21T07:18:00.440Z,59.38
2023-05-21T07:19:03.332Z,59.58
2023-05-21T07:20:07.806Z,59.38
2023-05-21T07:21:11.433Z,59.49
2023-05-21T07:22:14.580Z,59.43
2023-05-21T07:23:18.005Z,59.65
2023-05-21T07:24:21.936Z,59.33
2023-05-21T07:25:24.981Z,59.68
2023-05-21T07:26:27.861Z,59.79
2023-05-21T07:27:30.820Z,59.94
2023-05-21T07:28:33.556Z,59.40
2023-05-21T07:29:37.012Z,59.72
2023-05-21T07:30:39.888Z,59.50
2023-05-21T07:31:45.952Z,60.32
2023-05-21T07:32:48.938Z,59.85
2023-05-21T07:33:51.804Z,61.03
2023-05-21T07:34:56.842Z,60.90
2023-05-21T07:36:00.988Z,60.74
2023-05-21T07:37:04.978Z,60.97
2023-05-21T07:38:07.819Z,60.87
2023-05-21T07:39:10.650Z,60.86
2023-05-21T07:40:14.066Z,60.56
2023-05-21T07:41:18.821Z,61.04
2023-05-21T07:42:22.636Z,61.25
2023-05-21T07:43:25.460Z,60.95
2023-05-21T07:44:28.257Z,61.15
2023-05-21T07:45:31.081Z,61.33
2023-05-21T07:46:34.743Z,61.30
2023-05-21T07:47:37.673Z,61.03
2023-05-21T07:48:41.832Z,61.21
2023-05-21T07:49:44.609Z,61.33
2023-05-21T07:50:49.719Z,61.54
2023-05-21T07:51:52.561Z,61.31
2023-05-21T07:52:55.841Z,61.07
2023-05-21T07:53:58.751Z,61.13
2023-05-21T07:55:08.966Z,61.02
2023-05-21T07:56:12.032Z,60.96
2023-05-21T07:57:15.043Z,61.46
2023-05-21T07:58:26.849Z,61.32
2023-05-21T07:59:30.516Z,61.13
2023-05-21T08:00:42.144Z,61.13
2023-05-21T08:01:44.951Z,61.05
2023-05-21T08:02:48.095Z,60.94
2023-05-21T08:03:51.507Z,61.13
2023-05-21T08:04:55.225Z,61.37
2023-05-21T08:05:58.333Z,61.07
2023-05-21T08:07:01.209Z,60.91
2023-05-21T08:08:05.196Z,60.88
2023-05-21T08:09:08.572Z,60.86
2023-05-21T08:10:11.729Z,61.04
2023-05-21T08:11:15.802Z,60.79
2023-05-21T08:12:19.809Z,60.84
2023-05-21T08:13:22.771Z,60.65
2023-05-21T08:14:26.159Z,60.78
2023-05-21T08:15:29.329Z,60.55
2023-05-21T08:16:32.168Z,60.49
2023-05-21T08:17:35.058Z,60.38
2023-05-21T08:18:37.833Z,60.04
2023-05-21T08:19:42.062Z,60.06
2023-05-21T08:20:45.348Z,60.03
2023-05-21T08:21:48.965Z,59.88
2023-05-21T08:22:53.611Z,59.61
2023-05-21T08:23:57.253Z,59.66
2023-05-21T08:25:01.905Z,59.31
2023-05-21T08:26:04.769Z,59.41
2023-05-21T08:27:07.862Z,59.47
2023-05-21T08:28:10.619Z,59.58
2023-05-21T08:29:13.348Z,59.64
2023-05-21T08:30:16.479Z,59.54
2023-05-21T08:31:20.386Z,59.54
2023-05-21T08:32:23.480Z,59.18
2023-05-21T08:33:26.522Z,59.19
2023-05-21T08:34:29.476Z,59.27
2023-05-21T08:35:43.830Z,59.40
2023-05-21T08:36:57.138Z,59.46
2023-05-21T08:38:22.577Z,59.52
2023-05-21T08:39:36.117Z,59.57
2023-05-21T08:40:39.096Z,59.56
2023-05-21T08:41:46.631Z,59.56
2023-05-21T08:42:49.633Z,59.60
2023-05-21T08:43:57.791Z,59.35
2023-05-21T08:45:04.853Z,59.25
2023-05-21T08:46:09.590Z,59.15
2023-05-21T08:47:16.599Z,59.04
2023-05-21T08:48:19.959Z,59.07
2023-05-21T08:49:27.471Z,59.00
2023-05-21T08:50:31.568Z,58.31
2023-05-21T08:51:36.332Z,58.28
2023-05-21T08:52:39.256Z,58.26
2023-05-21T08:53:42.438Z,58.23
2023-05-21T08:54:46.396Z,58.16
2023-05-21T08:55:52.583Z,57.81
2023-05-21T08:56:56.668Z,57.61
2023-05-21T08:58:01.606Z,57.40
2023-05-21T08:59:04.606Z,57.56
2023-05-21T09:00:11.362Z,57.49
2023-05-21T09:01:14.494Z,57.70
2023-05-21T09:02:21.801Z,57.90
2023-05-21T09:03:25.274Z,58.07
2023-05-21T09:04:28.746Z,58.18
2023-05-21T09:05:31.731Z,58.19
2023-05-21T09:06:34.539Z,58.13
2023-05-21T09:07:44.570Z,58.12
2023-05-21T09:09:17.598Z,57.76
2023-05-21T09:10:27.409Z,57.67
2023-05-21T09:11:30.399Z,57.81
2023-05-21T09:12:34.819Z,57.96
2023-05-21T09:13:39.143Z,58.00
2023-05-21T09:14:47.280Z,58.02
2023-05-21T09:15:55.943Z,57.69
2023-05-21T09:17:00.059Z,57.04
2023-05-21T09:18:10.180Z,56.63
2023-05-21T09:19:22.418Z,56.91
2023-05-21T09:20:26.520Z,57.15
2023-05-21T09:21:33.337Z,57.39
2023-05-21T09:22:43.221Z,57.59
2023-05-21T09:23:46.006Z,57.77
2023-05-21T09:24:51.660Z,57.80
2023-05-21T09:25:54.733Z,57.81
2023-05-21T09:27:02.513Z,57.87
2023-05-21T09:28:11.648Z,57.94
2023-05-21T09:29:16.266Z,57.89
2023-05-21T09:30:34.848Z,57.86
2023-05-21T09:31:43.347Z,57.73
2023-05-21T09:32:53.111Z,56.85
2023-05-21T09:33:56.441Z,56.96
2023-05-21T09:35:12.922Z,57.00
2023-05-21T09:36:17.764Z,56.65
2023-05-21T09:38:30.317Z,56.44
2023-05-21T09:39:33.623Z,56.33
2023-05-21T09:40:43.834Z,56.19
2023-05-21T09:41:46.749Z,56.12
2023-05-21T09:42:51.237Z,55.95
2023-05-21T09:43:58.617Z,55.96
2023-05-21T09:45:02.040Z,55.69
2023-05-21T09:46:06.403Z,55.68
2023-05-21T09:47:09.713Z,55.78
2023-05-21T09:48:12.789Z,55.87
2023-05-21T09:49:23.586Z,55.65
2023-05-21T09:50:31.656Z,55.54
2023-05-21T09:51:39.498Z,55.55
2023-05-21T09:52:42.456Z,55.79
2023-05-21T09:54:01.211Z,55.71
2023-05-21T09:55:05.575Z,55.87
2023-05-21T09:56:09.217Z,55.62
2023-05-21T09:57:14.350Z,55.56
2023-05-21T09:58:17.189Z,55.62
2023-05-21T09:59:20.614Z,55.71
2023-05-21T10:00:24.387Z,55.76
2023-05-21T10:01:28.170Z,55.67
2023-05-21T10:02:31.692Z,55.19
2023-05-21T10:03:38.959Z,54.93
2023-05-21T10:04:42.748Z,54.88
2023-05-21T10:05:45.737Z,55.14
2023-05-21T10:06:50.019Z,54.75
2023-05-21T10:07:54.433Z,54.42
2023-05-21T10:08:59.499Z,54.24
2023-05-21T10:10:03.901Z,54.18
2023-05-21T10:11:06.994Z,53.75
2023-05-21T10:12:10.904Z,53.52
2023-05-21T10:13:15.016Z,53.42
2023-05-21T10:14:20.248Z,53.74
2023-05-21T10:15:24.250Z,53.88
2023-05-21T10:16:27.259Z,53.75
2023-05-21T10:17:30.821Z,53.69
2023-05-21T10:18:35.073Z,53.88
2023-05-21T10:19:38.972Z,53.86
2023-05-21T10:20:42.594Z,53.46
2023-05-21T10:21:45.923Z,53.33
2023-05-21T10:22:50.602Z,53.54
2023-05-21T10:23:56.513Z,53.62
2023-05-21T10:24:59.447Z,53.79
2023-05-21T10:26:03.169Z,53.82
2023-05-21T10:27:07.183Z,53.26
2023-05-21T10:28:10.275Z,53.07
2023-05-21T10:29:17.452Z,52.90
2023-05-21T10:30:23.381Z,52.75
2023-05-21T10:31:26.760Z,52.43
2023-05-21T10:32:30.449Z,52.30
2023-05-21T10:33:35.900Z,52.34
2023-05-21T10:34:38.891Z,52.52
2023-05-21T10:35:42.160Z,52.65
2023-05-21T10:36:46.227Z,52.23
2023-05-21T10:37:49.774Z,51.80
2023-05-21T10:38:53.273Z,52.01
2023-05-21T10:39:56.850Z,52.18
2023-05-21T10:41:00.733Z,52.42
2023-05-21T10:42:03.697Z,52.41
2023-05-21T10:43:18.433Z,52.14
2023-05-21T10:44:40.048Z,51.50
2023-05-21T10:45:52.075Z,51.22
2023-05-21T10:47:13.428Z,51.07
2023-05-21T10:48:23.781Z,50.59
2023-05-21T10:49:34.306Z,50.78
2023-05-21T10:50:57.416Z,51.31
2023-05-21T10:52:19.106Z,51.65
2023-05-21T10:53:40.604Z,51.84
2023-05-21T10:55:03.792Z,51.87
2023-05-21T10:56:25.448Z,51.64
2023-05-21T10:57:46.673Z,51.24
2023-05-21T10:59:07.874Z,51.25
2023-05-21T11:00:12.689Z,51.33
2023-05-21T11:01:16.604Z,51.62
2023-05-21T11:02:20.053Z,51.75
2023-05-21T11:03:23.200Z,51.89
2023-05-21T11:04:27.039Z,52.11
2023-05-21T11:05:41.365Z,52.25
2023-05-21T11:06:48.198Z,52.24
2023-05-21T11:07:56.505Z,52.25
2023-05-21T11:09:12.691Z,52.33
2023-05-21T11:10:34.228Z,52.42
2023-05-21T11:11:43.564Z,52.14
2023-05-21T11:13:06.056Z,52.23
2023-05-21T11:14:28.150Z,51.89
2023-05-21T11:15:31.062Z,51.89
2023-05-21T11:16:40.548Z,51.36
2023-05-21T11:17:44.656Z,51.44
2023-05-21T11:18:47.930Z,50.99
2023-05-21T11:19:51.671Z,50.85
2023-05-21T11:20:54.427Z,50.99
2023-05-21T11:21:57.331Z,50.88
2023-05-21T11:23:00.180Z,50.38
2023-05-21T11:24:18.521Z,50.72
2023-05-21T11:25:21.588Z,49.46
2023-05-21T11:26:31.029Z,50.00
2023-05-21T11:27:38.033Z,49.95
2023-05-21T11:28:41.481Z,48.96
2023-05-21T11:29:44.942Z,49.77
2023-05-21T11:31:07.727Z,48.08
2023-05-21T11:32:13.820Z,47.19
2023-05-21T11:33:19.910Z,46.48
2023-05-21T11:34:29.625Z,47.20
2023-05-21T11:35:36.171Z,47.00
2023-05-21T11:36:39.460Z,47.62
2023-05-21T11:37:43.737Z,47.91
2023-05-21T11:39:07.159Z,47.77
2023-05-21T11:40:16.747Z,46.63
2023-05-21T11:41:20.082Z,45.29
2023-05-21T11:42:30.527Z,46.08
2023-05-21T11:43:33.272Z,44.34
2023-05-21T11:44:48.238Z,44.00
2023-05-21T11:45:53.185Z,43.33
2023-05-21T11:46:56.589Z,44.30
2023-05-21T11:48:00.261Z,44.77
2023-05-21T11:49:03.796Z,44.72
2023-05-21T11:50:12.186Z,44.78
2023-05-21T11:51:15.226Z,44.86
2023-05-21T11:52:19.796Z,44.84
2023-05-21T11:53:22.599Z,44.23
2023-05-21T11:54:26.135Z,42.56
2023-05-21T11:55:29.010Z,41.82
2023-05-21T11:56:33.037Z,42.51
2023-05-21T11:57:35.842Z,42.74
2023-05-21T11:58:42.197Z,42.21
2023-05-21T11:59:47.571Z,42.13
2023-05-21T12:00:51.176Z,42.65
2023-05-21T12:01:55.261Z,42.65
2023-05-21T12:02:58.958Z,42.77
2023-05-21T12:04:04.385Z,41.88
2023-05-21T12:05:13.155Z,41.75
2023-05-21T12:06:20.302Z,41.55
2023-05-21T12:07:23.188Z,41.58
2023-05-21T12:08:27.196Z,41.60
2023-05-21T12:09:30.335Z,40.71
2023-05-21T12:10:37.711Z,40.35
2023-05-21T12:11:41.553Z,39.64
2023-05-21T12:12:54.899Z,39.08
2023-05-21T12:13:59.744Z,38.73
2023-05-21T12:15:02.679Z,38.93
2023-05-21T12:16:07.315Z,37.74
2023-05-21T12:17:10.698Z,39.24
2023-05-21T12:18:15.175Z,40.12
2023-05-21T12:19:19.334Z,40.27
2023-05-21T12:20:22.230Z,40.99
2023-05-21T12:21:27.191Z,40.17
2023-05-21T12:22:30.422Z,39.54
2023-05-21T12:23:33.482Z,40.22
2023-05-21T12:24:36.839Z,39.55
2023-05-21T12:25:40.740Z,39.57
2023-05-21T12:26:46.004Z,40.03
2023-05-21T12:27:52.892Z,40.45
2023-05-21T12:28:57.252Z,40.64
2023-05-21T12:30:00.643Z,39.61
2023-05-21T12:31:03.536Z,38.35
2023-05-21T12:32:08.948Z,36.42
2023-05-21T12:33:12.349Z,38.08
2023-05-21T12:34:18.683Z,40.06
2023-05-21T12:35:24.881Z,39.62
2023-05-21T12:36:27.995Z,39.68
2023-05-21T12:37:35.739Z,38.96
2023-05-21T12:38:38.960Z,39.32
2023-05-21T12:39:45.549Z,38.49
2023-05-21T12:40:48.441Z,38.61
2023-05-21T12:41:54.181Z,37.98
2023-05-21T12:42:57.067Z,35.89
2023-05-21T12:44:00.681Z,37.91
2023-05-21T12:45:07.041Z,36.97
2023-05-21T12:46:14.991Z,37.35
2023-05-21T12:47:18.431Z,36.04
2023-05-21T12:48:21.288Z,35.81
2023-05-21T12:49:55.401Z,35.61
2023-05-21T12:51:05.307Z,36.75
2023-05-21T12:53:07.360Z,35.44
2023-05-21T12:54:37.357Z,34.48
2023-05-21T12:55:44.974Z,31.13
2023-05-21T12:59:08.424Z,33.31
2023-05-21T13:00:32.466Z,29.36
2023-05-21T13:01:41.469Z,32.14
2023-05-21T13:02:47.539Z,31.48
2023-05-21T13:03:50.978Z,29.84
2023-05-21T13:05:01.116Z,31.11
2023-05-21T13:06:22.232Z,32.11
2023-05-21T13:07:37.905Z,29.41
2023-05-21T13:08:41.076Z,31.53
2023-05-21T13:09:46.293Z,28.00
2023-05-21T13:10:49.619Z,27.88
2023-05-21T13:11:55.051Z,29.02
2023-05-21T13:12:58.423Z,28.82
2023-05-21T13:14:01.716Z,28.70
2023-05-21T13:15:08.579Z,28.79
2023-05-21T13:16:11.629Z,28.87
2023-05-21T13:17:15.045Z,29.48
2023-05-21T13:18:18.136Z,29.39
2023-05-21T13:19:21.144Z,29.78
2023-05-21T13:20:28.054Z,30.10
2023-05-21T13:21:31.245Z,29.97
2023-05-21T13:22:35.423Z,29.58
2023-05-21T13:23:39.653Z,28.69
2023-05-21T13:31:11.634Z,27.61
2023-05-21T13:32:31.730Z,26.70
2023-05-21T13:35:12.594Z,27.05
2023-05-21T13:37:17.716Z,29.28
2023-05-21T13:38:22.210Z,28.26
2023-05-21T13:39:29.194Z,27.79
2023-05-21T13:40:38.719Z,27.25
2023-05-21T13:41:43.913Z,27.59
2023-05-21T13:42:47.759Z,27.85
2023-05-21T13:43:51.944Z,27.70
2023-05-21T13:44:54.711Z,27.81
2023-05-21T13:46:00.490Z,28.10
2023-05-21T13:47:03.804Z,27.97
2023-05-21T13:48:07.066Z,28.07
2023-05-21T13:49:10.114Z,27.40
2023-05-21T13:50:13.063Z,26.37
2023-05-21T13:51:30.808Z,26.97
2023-05-21T13:52:39.478Z,27.34
2023-05-21T13:53:42.445Z,27.15
2023-05-21T13:54:45.280Z,26.82
2023-05-21T13:55:48.083Z,27.12
2023-05-21T13:56:51.017Z,26.38
2023-05-21T13:57:53.863Z,26.07
2023-05-21T13:58:56.807Z,26.73
2023-05-21T14:00:00.849Z,26.18
2023-05-21T14:01:03.854Z,26.52
2023-05-21T14:02:08.888Z,26.14
2023-05-21T14:03:12.296Z,26.92
2023-05-21T14:04:15.395Z,26.31
2023-05-21T14:05:18.372Z,26.09
2023-05-21T14:06:21.257Z,25.89
2023-05-21T14:07:24.646Z,26.49
2023-05-21T14:08:29.407Z,25.17
2023-05-21T14:09:32.772Z,24.91
2023-05-21T14:10:35.937Z,24.97
2023-05-21T14:11:41.618Z,24.71